createdAt,value
2018-07-02T00:04:26.892Z,16.62
2018-07-02T00:09:20.005Z,16.53
2018-07-02T00:14:13.044Z,16.47
2018-07-02T00:19:06.059Z,16.41
2018-07-02T00:23:59.089Z,16.31
2018-07-02T00:28:52.405Z,16.21
2018-07-02T00:33:45.408Z,16.11
2018-07-02T00:38:38.498Z,16.00
2018-07-02T00:43:31.608Z,15.94
2018-07-02T00:48:24.644Z,15.86
2018-07-02T00:53:17.619Z,15.76
2018-07-02T00:58:10.619Z,15.73
2018-07-02T01:03:03.694Z,15.66
2018-07-02T01:07:56.732Z,15.59
2018-07-02T01:12:49.791Z,15.56
2018-07-02T01:17:42.790Z,15.41
2018-07-02T01:22:35.752Z,15.27
2018-07-02T01:27:33.208Z,15.15
2018-07-02T01:32:26.220Z,15.01
2018-07-02T01:37:19.166Z,14.96
2018-07-02T01:42:12.141Z,14.82
2018-07-02T01:47:05.347Z,14.65
2018-07-02T01:51:58.379Z,14.57
2018-07-02T01:56:51.356Z,14.46
2018-07-02T02:01:44.342Z,14.37
2018-07-02T02:06:37.387Z,14.25
2018-07-02T02:11:30.330Z,14.13
2018-07-02T02:16:23.368Z,14.07
2018-07-02T02:21:16.345Z,13.96
2018-07-02T02:26:09.334Z,13.85
2018-07-02T02:31:02.359Z,13.71
2018-07-02T02:35:55.296Z,13.66
2018-07-02T02:40:48.273Z,13.65
2018-07-02T02:45:41.233Z,13.62
2018-07-02T02:50:34.269Z,13.63
2018-07-02T02:55:27.242Z,13.55
2018-07-02T03:00:20.322Z,13.50
2018-07-02T03:05:13.389Z,13.36
2018-07-02T03:10:06.397Z,13.31
2018-07-02T03:14:59.464Z,13.24
2018-07-02T03:19:52.445Z,13.23
2018-07-02T03:24:45.543Z,13.21
2018-07-02T03:29:38.662Z,13.17
2018-07-02T03:34:31.692Z,13.12
2018-07-02T03:39:24.648Z,13.13
2018-07-02T03:44:17.811Z,13.12
2018-07-02T03:49:10.912Z,13.13
2018-07-02T03:54:04.019Z,13.16
2018-07-02T03:58:57.035Z,13.22
2018-07-02T04:03:50.102Z,13.25
2018-07-02T04:08:43.096Z,13.30
2018-07-02T04:13:36.260Z,13.34
2018-07-02T04:18:29.247Z,13.37
2018-07-02T04:23:22.222Z,13.44
2018-07-02T04:28:15.191Z,13.51
2018-07-02T04:33:08.257Z,13.62
2018-07-02T04:38:01.315Z,13.72
2018-07-02T04:42:54.357Z,13.81
2018-07-02T04:47:47.466Z,13.92
2018-07-02T04:52:40.649Z,14.02
2018-07-02T04:57:33.622Z,14.09
2018-07-02T05:02:26.589Z,14.16
2018-07-02T05:07:19.718Z,14.20
2018-07-02T05:12:12.790Z,14.27
2018-07-02T05:17:06.057Z,14.33
2018-07-02T05:21:59.076Z,14.40
2018-07-02T05:26:52.238Z,14.47
2018-07-02T05:31:45.304Z,14.58
2018-07-02T05:36:38.765Z,14.69
2018-07-02T05:41:32.199Z,14.77
2018-07-02T05:46:25.210Z,14.86
2018-07-02T05:51:18.201Z,14.95
2018-07-02T05:56:11.250Z,15.07
2018-07-02T06:01:04.326Z,15.18
2018-07-02T06:05:57.384Z,15.31
2018-07-02T06:10:50.388Z,15.59
2018-07-02T06:15:43.508Z,15.78
2018-07-02T06:20:36.637Z,15.97
2018-07-02T06:25:29.738Z,16.06
2018-07-02T06:30:22.775Z,16.14
2018-07-02T06:35:15.800Z,16.20
2018-07-02T06:40:08.913Z,16.40
2018-07-02T06:45:01.996Z,16.65
2018-07-02T06:49:55.103Z,16.81
2018-07-02T06:54:48.104Z,16.87
2018-07-02T06:59:41.270Z,16.96
2018-07-02T07:04:34.493Z,17.15
2018-07-02T07:09:27.389Z,17.36
2018-07-02T07:14:20.395Z,17.32
2018-07-02T07:19:13.670Z,17.28
2018-07-02T07:24:06.702Z,17.29
2018-07-02T07:29:00.998Z,17.62
2018-07-02T07:33:54.039Z,19.51
2018-07-02T07:38:47.035Z,21.84
2018-07-02T07:43:40.060Z,23.60
2018-07-02T07:48:33.069Z,24.83
2018-07-02T07:53:26.135Z,25.83
2018-07-02T07:58:19.138Z,26.46
2018-07-02T08:03:12.325Z,26.87
2018-07-02T08:08:05.632Z,27.07
2018-07-02T08:12:59.800Z,26.99
2018-07-02T08:17:52.926Z,26.88
2018-07-02T08:22:45.986Z,26.79
2018-07-02T08:27:40.196Z,26.65
2018-07-02T08:32:33.206Z,26.48
2018-07-02T08:37:26.645Z,26.27
2018-07-02T08:42:19.811Z,25.91
2018-07-02T08:47:12.888Z,25.71
2018-07-02T08:52:06.475Z,25.41
2018-07-02T08:56:59.727Z,25.08
2018-07-02T09:01:52.883Z,24.92
2018-07-02T09:06:46.251Z,24.87
2018-07-02T09:11:40.339Z,24.88
2018-07-02T09:16:33.437Z,24.88
2018-07-02T09:21:34.648Z,24.60
2018-07-02T09:26:27.691Z,24.31
2018-07-02T09:31:20.594Z,23.99
2018-07-02T09:36:13.708Z,23.86
2018-07-02T09:41:06.706Z,23.76
2018-07-02T09:45:59.894Z,23.82
2018-07-02T09:50:52.845Z,23.38
2018-07-02T09:55:45.843Z,22.99
2018-07-02T10:00:39.037Z,22.69
2018-07-02T10:05:32.032Z,22.46
2018-07-02T10:10:25.021Z,22.29
2018-07-02T10:15:18.113Z,22.16
2018-07-02T10:20:11.271Z,22.09
2018-07-02T10:25:04.562Z,22.10
2018-07-02T10:29:57.592Z,22.18
2018-07-02T10:34:50.836Z,22.51
2018-07-02T10:39:43.828Z,22.97
2018-07-02T10:44:36.921Z,23.37
2018-07-02T10:49:30.103Z,23.43
2018-07-02T10:54:23.111Z,23.27
2018-07-02T10:59:16.115Z,23.14
2018-07-02T11:04:09.156Z,23.08
2018-07-02T11:09:02.291Z,23.05
2018-07-02T11:13:55.631Z,23.15
2018-07-02T11:18:48.855Z,23.32
2018-07-02T11:23:41.975Z,23.62
2018-07-02T11:28:35.041Z,23.76
2018-07-02T11:33:28.241Z,23.62
2018-07-02T11:38:21.170Z,23.51
2018-07-02T11:43:14.243Z,23.68
2018-07-02T11:48:07.472Z,23.76
2018-07-02T11:53:00.717Z,23.82
2018-07-02T11:57:53.813Z,23.88
2018-07-02T12:02:46.832Z,24.05
2018-07-02T12:07:39.956Z,24.09
2018-07-02T12:12:33.323Z,24.02
2018-07-02T12:17:26.372Z,23.96
2018-07-02T12:22:19.381Z,23.89
2018-07-02T12:27:12.398Z,23.86
2018-07-02T12:32:05.655Z,24.17
2018-07-02T12:36:58.604Z,24.48
2018-07-02T12:41:51.620Z,24.70
2018-07-02T12:46:44.960Z,24.73
2018-07-02T12:51:38.018Z,24.68
2018-07-02T12:56:31.076Z,24.61
2018-07-02T13:01:24.169Z,24.62
2018-07-02T13:06:17.136Z,24.74
2018-07-02T13:11:10.135Z,25.01
2018-07-02T13:16:03.238Z,25.23
2018-07-02T13:20:56.263Z,25.26
2018-07-02T13:25:49.377Z,25.17
2018-07-02T13:30:42.575Z,25.05
2018-07-02T13:35:35.391Z,24.95
2018-07-02T13:40:28.440Z,24.96
2018-07-02T13:45:21.485Z,25.03
2018-07-02T13:50:14.465Z,25.02
2018-07-02T13:55:07.738Z,24.90
2018-07-02T14:00:00.813Z,24.87
2018-07-02T14:04:53.677Z,25.08
2018-07-02T14:09:46.702Z,25.27
2018-07-02T14:14:39.767Z,25.46
2018-07-02T14:19:32.759Z,25.61
2018-07-02T14:24:25.690Z,25.72
2018-07-02T14:29:18.725Z,25.86
2018-07-02T14:34:11.762Z,25.94
2018-07-02T14:39:09.572Z,25.93
2018-07-02T14:44:02.580Z,25.98
2018-07-02T14:48:55.583Z,26.02
2018-07-02T14:53:48.768Z,26.14
2018-07-02T14:58:41.754Z,26.28
2018-07-02T15:03:34.805Z,26.48
2018-07-02T15:08:27.742Z,26.61
2018-07-02T15:13:20.750Z,26.64
2018-07-02T15:18:14.124Z,26.65
2018-07-02T15:23:07.365Z,26.66
2018-07-02T15:28:00.385Z,26.57
2018-07-02T15:32:53.397Z,26.46
2018-07-02T15:37:46.377Z,26.41
2018-07-02T15:42:39.440Z,26.36
2018-07-02T15:47:32.410Z,26.33
2018-07-02T15:52:25.500Z,26.30
2018-07-02T15:57:18.634Z,26.30
2018-07-02T16:02:11.571Z,26.37
2018-07-02T16:07:04.681Z,26.43
2018-07-02T16:11:57.790Z,26.45
2018-07-02T16:16:50.761Z,26.39
2018-07-02T16:21:43.761Z,26.28
2018-07-02T16:26:36.841Z,26.20
2018-07-02T16:31:29.926Z,26.14
2018-07-02T16:36:22.933Z,26.08
2018-07-02T16:41:16.123Z,26.05
2018-07-02T16:46:09.623Z,26.03
2018-07-02T16:51:02.677Z,25.99
2018-07-02T16:55:55.638Z,25.93
2018-07-02T17:00:48.622Z,25.91
2018-07-02T17:05:41.624Z,25.87
2018-07-02T17:10:34.667Z,25.83
2018-07-02T17:15:27.689Z,25.79
2018-07-02T17:20:20.742Z,25.77
2018-07-02T17:25:13.888Z,25.74
2018-07-02T17:30:08.268Z,25.72
2018-07-02T17:35:01.317Z,25.71
2018-07-02T17:39:54.527Z,25.72
2018-07-02T17:44:47.674Z,25.70
2018-07-02T17:49:40.740Z,25.67
2018-07-02T17:54:33.838Z,25.65
2018-07-02T17:59:26.854Z,25.60
2018-07-02T18:04:20.692Z,25.53
2018-07-02T18:09:13.814Z,25.45
2018-07-02T18:14:06.978Z,25.37
2018-07-02T18:19:00.016Z,25.26
2018-07-02T18:23:53.109Z,25.16
2018-07-02T18:28:46.050Z,25.06
2018-07-02T18:33:39.080Z,24.97
2018-07-02T18:38:32.097Z,24.89
2018-07-02T18:43:25.067Z,24.82
2018-07-02T18:48:18.118Z,24.69
2018-07-02T18:53:11.164Z,24.59
2018-07-02T18:58:04.407Z,24.52
2018-07-02T19:02:57.408Z,24.44
2018-07-02T19:07:50.414Z,24.35
2018-07-02T19:12:43.417Z,24.26
2018-07-02T19:17:36.421Z,24.15
2018-07-02T19:22:29.353Z,24.07
2018-07-02T19:27:22.336Z,23.95
2018-07-02T19:32:15.471Z,23.82
2018-07-02T19:37:08.542Z,23.72
2018-07-02T19:42:01.511Z,23.58
2018-07-02T19:46:54.559Z,23.47
2018-07-02T19:51:47.563Z,23.35
2018-07-02T19:56:40.815Z,23.23
2018-07-02T20:01:33.708Z,23.10
2018-07-02T20:06:27.194Z,22.96
2018-07-02T20:11:20.236Z,22.83
2018-07-02T20:16:13.247Z,22.71
2018-07-02T20:21:06.314Z,22.63
2018-07-02T20:25:59.420Z,22.50
2018-07-02T20:30:52.504Z,22.41
2018-07-02T20:35:45.479Z,22.30
2018-07-02T20:40:38.584Z,22.17
2018-07-02T20:45:31.737Z,22.06
2018-07-02T20:50:24.916Z,21.95
2018-07-02T20:55:17.907Z,21.83
2018-07-02T21:00:11.078Z,21.71
2018-07-02T21:05:04.654Z,21.58
2018-07-02T21:09:57.705Z,21.42
2018-07-02T21:14:50.695Z,21.32
2018-07-02T21:19:43.780Z,21.18
2018-07-02T21:24:36.737Z,21.07
2018-07-02T21:29:29.659Z,20.96
2018-07-02T21:34:22.832Z,20.87
2018-07-02T21:39:15.791Z,20.74
2018-07-02T21:44:08.905Z,20.65
2018-07-02T21:49:01.954Z,20.53
2018-07-02T21:53:55.055Z,20.48
2018-07-02T21:58:48.034Z,20.44
2018-07-02T22:03:41.043Z,20.35
2018-07-02T22:08:34.084Z,20.28
2018-07-02T22:13:27.125Z,20.19
2018-07-02T22:18:20.111Z,20.04
2018-07-02T22:23:13.067Z,19.92
2018-07-02T22:28:06.248Z,19.88
2018-07-02T22:33:00.142Z,19.83
2018-07-02T22:37:53.235Z,19.73
2018-07-02T22:42:46.245Z,19.67
2018-07-02T22:47:39.194Z,19.62
2018-07-02T22:52:32.186Z,19.48
2018-07-02T22:57:25.367Z,19.39
2018-07-02T23:02:18.257Z,19.25
2018-07-02T23:07:11.247Z,19.09
2018-07-02T23:12:04.440Z,18.91
2018-07-02T23:16:57.552Z,18.77
2018-07-02T23:21:50.558Z,18.69
2018-07-02T23:26:43.611Z,18.68
2018-07-02T23:31:36.675Z,18.66
2018-07-02T23:36:29.719Z,18.64
2018-07-02T23:41:22.690Z,18.54
2018-07-02T23:46:15.649Z,18.50
2018-07-02T23:51:08.620Z,18.39
2018-07-02T23:56:01.670Z,18.23
